sensor_id;sensor_type;location;lat;lon;timestamp;P1;durP1;ratioP1;P2;durP2;ratioP2
11269;SDS011;5692;48.956;9.200;2023-01-23T00:02:01;122.55;;;116.65;;
11269;SDS011;5692;48.956;9.200;2023-01-23T00:04:27;120.85;;;115.05;;
11269;SDS011;5692;48.956;9.200;2023-01-23T00:06:53;113.80;;;108.30;;
11269;SDS011;5692;48.956;9.200;2023-01-23T00:09:19;118.53;;;112.82;;
11269;SDS011;5692;48.956;9.200;2023-01-23T00:11:45;109.15;;;103.90;;
11269;SDS011;5692;48.956;9.200;2023-01-23T00:14:11;121.22;;;115.43;;
11269;SDS011;5692;48.956;9.200;2023-01-23T00:16:37;112.57;;;107.18;;
11269;SDS011;5692;48.956;9.200;2023-01-23T00:19:03;118.93;;;113.22;;
11269;SDS011;5692;48.956;9.200;2023-01-23T00:21:30;121.20;;;115.38;;
11269;SDS011;5692;48.956;9.200;2023-01-23T00:23:57;105.55;;;100.47;;
11269;SDS011;5692;48.956;9.200;2023-01-23T00:26:25;119.85;;;114.07;;
11269;SDS011;5692;48.956;9.200;2023-01-23T00:28:51;124.97;;;118.97;;
11269;SDS011;5692;48.956;9.200;2023-01-23T00:31:22;116.43;;;110.82;;
11269;SDS011;5692;48.956;9.200;2023-01-23T00:33:52;116.95;;;111.35;;
11269;SDS011;5692;48.956;9.200;2023-01-23T00:36:18;118.97;;;113.28;;
11269;SDS011;5692;48.956;9.200;2023-01-23T00:38:44;121.35;;;115.55;;
11269;SDS011;5692;48.956;9.200;2023-01-23T00:41:10;121.20;;;115.40;;
11269;SDS011;5692;48.956;9.200;2023-01-23T00:43:36;127.63;;;121.53;;
11269;SDS011;5692;48.956;9.200;2023-01-23T00:46:03;122.30;;;116.43;;
11269;SDS011;5692;48.956;9.200;2023-01-23T00:48:29;125.68;;;119.68;;
11269;SDS011;5692;48.956;9.200;2023-01-23T00:50:58;102.03;;;97.10;;
11269;SDS011;5692;48.956;9.200;2023-01-23T00:53:24;108.18;;;102.97;;
11269;SDS011;5692;48.956;9.200;2023-01-23T00:55:50;108.25;;;103.05;;
11269;SDS011;5692;48.956;9.200;2023-01-23T00:58:17;107.55;;;102.38;;
11269;SDS011;5692;48.956;9.200;2023-01-23T01:00:43;114.20;;;108.70;;
11269;SDS011;5692;48.956;9.200;2023-01-23T01:03:09;128.27;;;122.10;;
11269;SDS011;5692;48.956;9.200;2023-01-23T01:05:35;127.00;;;120.90;;
11269;SDS011;5692;48.956;9.200;2023-01-23T01:08:01;113.20;;;107.75;;
11269;SDS011;5692;48.956;9.200;2023-01-23T01:10:27;115.63;;;110.07;;
11269;SDS011;5692;48.956;9.200;2023-01-23T01:12:55;128.13;;;121.97;;
11269;SDS011;5692;48.956;9.200;2023-01-23T01:15:22;117.55;;;111.90;;
11269;SDS011;5692;48.956;9.200;2023-01-23T01:17:48;117.85;;;112.15;;
11269;SDS011;5692;48.956;9.200;2023-01-23T01:20:14;127.70;;;121.60;;
11269;SDS011;5692;48.956;9.200;2023-01-23T01:22:40;132.13;;;125.82;;
11269;SDS011;5692;48.956;9.200;2023-01-23T01:25:06;129.68;;;123.45;;
11269;SDS011;5692;48.956;9.200;2023-01-23T01:27:32;112.85;;;107.45;;
11269;SDS011;5692;48.956;9.200;2023-01-23T01:30:00;118.20;;;112.50;;
11269;SDS011;5692;48.956;9.200;2023-01-23T01:32:26;123.75;;;117.80;;
11269;SDS011;5692;48.956;9.200;2023-01-23T01:34:53;124.63;;;118.63;;
11269;SDS011;5692;48.956;9.200;2023-01-23T01:37:19;122.10;;;116.25;;
11269;SDS011;5692;48.956;9.200;2023-01-23T01:39:47;121.38;;;115.57;;
11269;SDS011;5692;48.956;9.200;2023-01-23T01:42:13;124.05;;;118.07;;
11269;SDS011;5692;48.956;9.200;2023-01-23T01:44:50;119.82;;;114.03;;
11269;SDS011;5692;48.956;9.200;2023-01-23T01:47:16;123.93;;;117.97;;
11269;SDS011;5692;48.956;9.200;2023-01-23T01:49:43;130.02;;;123.78;;
11269;SDS011;5692;48.956;9.200;2023-01-23T01:52:09;120.53;;;114.72;;
11269;SDS011;5692;48.956;9.200;2023-01-23T01:59:57;126.88;;;120.78;;
11269;SDS011;5692;48.956;9.200;2023-01-23T02:05:10;113.13;;;107.72;;
11269;SDS011;5692;48.956;9.200;2023-01-23T02:07:41;125.10;;;119.10;;
11269;SDS011;5692;48.956;9.200;2023-01-23T02:10:09;126.35;;;120.25;;
11269;SDS011;5692;48.956;9.200;2023-01-23T02:12:35;126.57;;;120.50;;
11269;SDS011;5692;48.956;9.200;2023-01-23T02:15:03;128.40;;;122.20;;
11269;SDS011;5692;48.956;9.200;2023-01-23T02:17:30;122.15;;;116.28;;
11269;SDS011;5692;48.956;9.200;2023-01-23T02:20:02;118.78;;;113.07;;
11269;SDS011;5692;48.956;9.200;2023-01-23T02:25:04;115.68;;;110.13;;
11269;SDS011;5692;48.956;9.200;2023-01-23T02:27:31;131.38;;;125.07;;
11269;SDS011;5692;48.956;9.200;2023-01-23T02:29:57;120.70;;;114.90;;
11269;SDS011;5692;48.956;9.200;2023-01-23T02:32:24;117.90;;;112.20;;
11269;SDS011;5692;48.956;9.200;2023-01-23T02:34:51;116.72;;;111.13;;
11269;SDS011;5692;48.956;9.200;2023-01-23T02:37:20;117.85;;;112.18;;
11269;SDS011;5692;48.956;9.200;2023-01-23T02:39:46;123.47;;;117.57;;
11269;SDS011;5692;48.956;9.200;2023-01-23T02:42:13;118.57;;;112.88;;
11269;SDS011;5692;48.956;9.200;2023-01-23T02:44:39;118.03;;;112.35;;
11269;SDS011;5692;48.956;9.200;2023-01-23T02:47:06;127.60;;;121.50;;
11269;SDS011;5692;48.956;9.200;2023-01-23T02:49:35;124.10;;;118.13;;
11269;SDS011;5692;48.956;9.200;2023-01-23T02:52:01;120.60;;;114.80;;
11269;SDS011;5692;48.956;9.200;2023-01-23T02:54:27;118.45;;;112.75;;
11269;SDS011;5692;48.956;9.200;2023-01-23T02:56:54;119.15;;;113.45;;
11269;SDS011;5692;48.956;9.200;2023-01-23T02:59:21;110.95;;;105.65;;
11269;SDS011;5692;48.956;9.200;2023-01-23T03:02:06;114.63;;;109.13;;
11269;SDS011;5692;48.956;9.200;2023-01-23T03:04:32;121.95;;;116.10;;
11269;SDS011;5692;48.956;9.200;2023-01-23T03:06:58;113.13;;;107.70;;
11269;SDS011;5692;48.956;9.200;2023-01-23T03:09:24;120.32;;;114.55;;
11269;SDS011;5692;48.956;9.200;2023-01-23T03:11:50;120.22;;;114.43;;
11269;SDS011;5692;48.956;9.200;2023-01-23T03:14:18;116.57;;;110.97;;
11269;SDS011;5692;48.956;9.200;2023-01-23T03:16:44;118.18;;;112.47;;
11269;SDS011;5692;48.956;9.200;2023-01-23T03:19:21;115.20;;;109.68;;
11269;SDS011;5692;48.956;9.200;2023-01-23T03:21:48;123.53;;;117.63;;
11269;SDS011;5692;48.956;9.200;2023-01-23T03:24:14;110.35;;;105.05;;
11269;SDS011;5692;48.956;9.200;2023-01-23T03:26:41;123.55;;;117.65;;
11269;SDS011;5692;48.956;9.200;2023-01-23T03:29:07;121.15;;;115.35;;
11269;SDS011;5692;48.956;9.200;2023-01-23T03:31:55;118.03;;;112.32;;
11269;SDS011;5692;48.956;9.200;2023-01-23T03:34:21;124.70;;;118.70;;
11269;SDS011;5692;48.956;9.200;2023-01-23T03:36:47;112.35;;;106.95;;
11269;SDS011;5692;48.956;9.200;2023-01-23T03:39:13;118.72;;;113.03;;
11269;SDS011;5692;48.956;9.200;2023-01-23T03:41:58;120.05;;;114.25;;
11269;SDS011;5692;48.956;9.200;2023-01-23T03:44:24;115.95;;;110.38;;
11269;SDS011;5692;48.956;9.200;2023-01-23T03:46:50;125.32;;;119.32;;
11269;SDS011;5692;48.956;9.200;2023-01-23T03:49:17;125.72;;;119.72;;
11269;SDS011;5692;48.956;9.200;2023-01-23T03:51:43;122.07;;;116.22;;
11269;SDS011;5692;48.956;9.200;2023-01-23T03:54:09;120.43;;;114.65;;
11269;SDS011;5692;48.956;9.200;2023-01-23T03:56:36;114.85;;;109.32;;
11269;SDS011;5692;48.956;9.200;2023-01-23T03:59:02;118.80;;;113.10;;
11269;SDS011;5692;48.956;9.200;2023-01-23T04:01:28;122.53;;;116.65;;
11269;SDS011;5692;48.956;9.200;2023-01-23T04:03:54;119.55;;;113.85;;
11269;SDS011;5692;48.956;9.200;2023-01-23T04:06:20;118.38;;;112.68;;
11269;SDS011;5692;48.956;9.200;2023-01-23T04:08:47;116.50;;;110.90;;
11269;SDS011;5692;48.956;9.200;2023-01-23T04:11:13;116.70;;;111.10;;
11269;SDS011;5692;48.956;9.200;2023-01-23T04:13:39;118.60;;;112.90;;
11269;SDS011;5692;48.956;9.200;2023-01-23T04:16:05;106.22;;;101.13;;
11269;SDS011;5692;48.956;9.200;2023-01-23T04:18:32;111.18;;;105.88;;
11269;SDS011;5692;48.956;9.200;2023-01-23T04:20:58;101.13;;;96.22;;
11269;SDS011;5692;48.956;9.200;2023-01-23T04:23:25;112.75;;;107.35;;
11269;SDS011;5692;48.956;9.200;2023-01-23T04:25:51;104.05;;;99.05;;
11269;SDS011;5692;48.956;9.200;2023-01-23T04:28:18;104.13;;;99.13;;
11269;SDS011;5692;48.956;9.200;2023-01-23T04:30:44;102.45;;;97.55;;
11269;SDS011;5692;48.956;9.200;2023-01-23T04:33:10;102.70;;;97.75;;
11269;SDS011;5692;48.956;9.200;2023-01-23T04:35:37;112.22;;;106.82;;
11269;SDS011;5692;48.956;9.200;2023-01-23T04:38:03;116.40;;;110.80;;
11269;SDS011;5692;48.956;9.200;2023-01-23T04:40:29;123.75;;;117.82;;
11269;SDS011;5692;48.956;9.200;2023-01-23T04:42:55;117.65;;;111.97;;
11269;SDS011;5692;48.956;9.200;2023-01-23T04:45:21;114.22;;;108.72;;
11269;SDS011;5692;48.956;9.200;2023-01-23T04:47:47;115.47;;;109.93;;
11269;SDS011;5692;48.956;9.200;2023-01-23T04:50:13;111.28;;;105.93;;
11269;SDS011;5692;48.956;9.200;2023-01-23T04:52:39;100.70;;;95.90;;
11269;SDS011;5692;48.956;9.200;2023-01-23T04:55:05;107.32;;;102.18;;
11269;SDS011;5692;48.956;9.200;2023-01-23T04:57:31;106.80;;;101.70;;
11269;SDS011;5692;48.956;9.200;2023-01-23T04:59:57;107.35;;;102.15;;
11269;SDS011;5692;48.956;9.200;2023-01-23T05:02:24;108.50;;;103.30;;
11269;SDS011;5692;48.956;9.200;2023-01-23T05:04:50;106.32;;;101.20;;
11269;SDS011;5692;48.956;9.200;2023-01-23T05:07:16;107.68;;;102.47;;
11269;SDS011;5692;48.956;9.200;2023-01-23T05:09:42;110.28;;;104.97;;
11269;SDS011;5692;48.956;9.200;2023-01-23T05:12:08;103.35;;;98.38;;
11269;SDS011;5692;48.956;9.200;2023-01-23T05:14:34;118.32;;;112.63;;
11269;SDS011;5692;48.956;9.200;2023-01-23T05:17:00;114.38;;;108.88;;
11269;SDS011;5692;48.956;9.200;2023-01-23T05:19:26;99.47;;;94.68;;
11269;SDS011;5692;48.956;9.200;2023-01-23T05:21:52;110.47;;;105.18;;
11269;SDS011;5692;48.956;9.200;2023-01-23T05:24:18;117.40;;;111.80;;
11269;SDS011;5692;48.956;9.200;2023-01-23T05:26:44;121.20;;;115.38;;
11269;SDS011;5692;48.956;9.200;2023-01-23T05:29:10;114.63;;;109.13;;
11269;SDS011;5692;48.956;9.200;2023-01-23T05:31:36;119.60;;;113.85;;
11269;SDS011;5692;48.956;9.200;2023-01-23T05:34:02;117.00;;;111.40;;
11269;SDS011;5692;48.956;9.200;2023-01-23T05:36:28;122.00;;;116.13;;
11269;SDS011;5692;48.956;9.200;2023-01-23T05:38:54;114.25;;;108.78;;
11269;SDS011;5692;48.956;9.200;2023-01-23T05:41:23;112.25;;;106.85;;
11269;SDS011;5692;48.956;9.200;2023-01-23T05:43:49;119.68;;;113.93;;
11269;SDS011;5692;48.956;9.200;2023-01-23T05:46:15;108.65;;;103.43;;
11269;SDS011;5692;48.956;9.200;2023-01-23T05:48:41;107.32;;;102.13;;
11269;SDS011;5692;48.956;9.200;2023-01-23T05:51:07;104.63;;;99.63;;
11269;SDS011;5692;48.956;9.200;2023-01-23T05:53:33;111.10;;;105.78;;
11269;SDS011;5692;48.956;9.200;2023-01-23T05:56:03;108.60;;;103.38;;
11269;SDS011;5692;48.956;9.200;2023-01-23T05:58:30;108.15;;;102.95;;
11269;SDS011;5692;48.956;9.200;2023-01-23T06:00:56;120.80;;;115.00;;
11269;SDS011;5692;48.956;9.200;2023-01-23T06:03:22;124.63;;;118.63;;
11269;SDS011;5692;48.956;9.200;2023-01-23T06:05:48;132.35;;;126.00;;
11269;SDS011;5692;48.956;9.200;2023-01-23T06:08:14;120.07;;;114.30;;
11269;SDS011;5692;48.956;9.200;2023-01-23T06:10:41;117.35;;;111.72;;
11269;SDS011;5692;48.956;9.200;2023-01-23T06:13:07;123.43;;;117.47;;
11269;SDS011;5692;48.956;9.200;2023-01-23T06:15:33;123.18;;;117.28;;
11269;SDS011;5692;48.956;9.200;2023-01-23T06:17:59;129.65;;;123.45;;
11269;SDS011;5692;48.956;9.200;2023-01-23T06:20:25;122.85;;;116.95;;
11269;SDS011;5692;48.956;9.200;2023-01-23T06:22:51;111.47;;;106.07;;
11269;SDS011;5692;48.956;9.200;2023-01-23T06:25:17;135.80;;;129.27;;
11269;SDS011;5692;48.956;9.200;2023-01-23T06:27:45;120.97;;;115.18;;
11269;SDS011;5692;48.956;9.200;2023-01-23T06:30:14;135.90;;;129.40;;
11269;SDS011;5692;48.956;9.200;2023-01-23T06:32:40;122.80;;;116.90;;
11269;SDS011;5692;48.956;9.200;2023-01-23T06:35:06;118.50;;;112.80;;
11269;SDS011;5692;48.956;9.200;2023-01-23T06:37:32;120.45;;;114.65;;
11269;SDS011;5692;48.956;9.200;2023-01-23T06:39:58;114.80;;;109.30;;
11269;SDS011;5692;48.956;9.200;2023-01-23T06:42:24;116.45;;;110.85;;
11269;SDS011;5692;48.956;9.200;2023-01-23T06:44:50;109.88;;;104.63;;
11269;SDS011;5692;48.956;9.200;2023-01-23T06:47:16;115.78;;;110.22;;
11269;SDS011;5692;48.956;9.200;2023-01-23T06:49:43;103.20;;;98.25;;
11269;SDS011;5692;48.956;9.200;2023-01-23T06:52:09;108.05;;;102.85;;
11269;SDS011;5692;48.956;9.200;2023-01-23T06:54:35;116.53;;;110.93;;
11269;SDS011;5692;48.956;9.200;2023-01-23T06:57:02;108.47;;;103.28;;
11269;SDS011;5692;48.956;9.200;2023-01-23T06:59:29;103.20;;;98.22;;
11269;SDS011;5692;48.956;9.200;2023-01-23T07:01:55;106.57;;;101.47;;
11269;SDS011;5692;48.956;9.200;2023-01-23T07:04:21;117.78;;;112.10;;
11269;SDS011;5692;48.956;9.200;2023-01-23T07:06:47;105.03;;;99.97;;
11269;SDS011;5692;48.956;9.200;2023-01-23T07:09:13;107.40;;;102.20;;
11269;SDS011;5692;48.956;9.200;2023-01-23T07:11:39;118.78;;;113.07;;
11269;SDS011;5692;48.956;9.200;2023-01-23T07:14:05;113.43;;;107.97;;
11269;SDS011;5692;48.956;9.200;2023-01-23T07:16:31;115.18;;;109.68;;
11269;SDS011;5692;48.956;9.200;2023-01-23T07:18:59;114.57;;;109.07;;
11269;SDS011;5692;48.956;9.200;2023-01-23T07:21:26;115.32;;;109.78;;
11269;SDS011;5692;48.956;9.200;2023-01-23T07:23:52;121.10;;;115.30;;
11269;SDS011;5692;48.956;9.200;2023-01-23T07:26:18;124.07;;;118.13;;
11269;SDS011;5692;48.956;9.200;2023-01-23T07:28:44;119.38;;;113.68;;
11269;SDS011;5692;48.956;9.200;2023-01-23T07:31:10;114.10;;;108.60;;
11269;SDS011;5692;48.956;9.200;2023-01-23T07:33:36;115.13;;;109.63;;
11269;SDS011;5692;48.956;9.200;2023-01-23T07:36:06;119.82;;;114.05;;
11269;SDS011;5692;48.956;9.200;2023-01-23T07:38:33;112.03;;;106.63;;
11269;SDS011;5692;48.956;9.200;2023-01-23T07:40:59;114.88;;;109.38;;
11269;SDS011;5692;48.956;9.200;2023-01-23T07:43:28;105.72;;;100.65;;
11269;SDS011;5692;48.956;9.200;2023-01-23T07:45:57;103.88;;;98.88;;
11269;SDS011;5692;48.956;9.200;2023-01-23T07:48:24;117.80;;;112.15;;
11269;SDS011;5692;48.956;9.200;2023-01-23T07:50:50;111.07;;;105.72;;
11269;SDS011;5692;48.956;9.200;2023-01-23T07:53:16;113.55;;;108.10;;
11269;SDS011;5692;48.956;9.200;2023-01-23T07:55:42;116.57;;;110.97;;
11269;SDS011;5692;48.956;9.200;2023-01-23T07:58:08;114.90;;;109.38;;
11269;SDS011;5692;48.956;9.200;2023-01-23T08:00:34;91.65;;;87.25;;
11269;SDS011;5692;48.956;9.200;2023-01-23T08:03:00;110.60;;;105.30;;
11269;SDS011;5692;48.956;9.200;2023-01-23T08:05:27;106.75;;;101.65;;
11269;SDS011;5692;48.956;9.200;2023-01-23T08:07:53;111.10;;;105.75;;
11269;SDS011;5692;48.956;9.200;2023-01-23T08:10:19;108.07;;;102.88;;
11269;SDS011;5692;48.956;9.200;2023-01-23T08:12:45;100.57;;;95.72;;
11269;SDS011;5692;48.956;9.200;2023-01-23T08:15:11;110.47;;;105.18;;
11269;SDS011;5692;48.956;9.200;2023-01-23T08:17:37;100.97;;;96.10;;
11269;SDS011;5692;48.956;9.200;2023-01-23T08:20:03;101.63;;;96.72;;
11269;SDS011;5692;48.956;9.200;2023-01-23T08:22:30;101.95;;;97.05;;
11269;SDS011;5692;48.956;9.200;2023-01-23T08:24:57;105.18;;;100.10;;
11269;SDS011;5692;48.956;9.200;2023-01-23T08:27:23;106.43;;;101.30;;
11269;SDS011;5692;48.956;9.200;2023-01-23T08:29:49;105.43;;;100.32;;
11269;SDS011;5692;48.956;9.200;2023-01-23T08:32:15;106.43;;;101.32;;
11269;SDS011;5692;48.956;9.200;2023-01-23T08:34:41;93.75;;;89.25;;
11269;SDS011;5692;48.956;9.200;2023-01-23T08:37:07;103.13;;;98.15;;
11269;SDS011;5692;48.956;9.200;2023-01-23T08:39:33;101.65;;;96.75;;
11269;SDS011;5692;48.956;9.200;2023-01-23T08:41:59;102.40;;;97.50;;
11269;SDS011;5692;48.956;9.200;2023-01-23T08:44:25;106.18;;;101.07;;
11269;SDS011;5692;48.956;9.200;2023-01-23T08:46:51;99.35;;;94.55;;
11269;SDS011;5692;48.956;9.200;2023-01-23T08:49:20;107.43;;;102.22;;
11269;SDS011;5692;48.956;9.200;2023-01-23T08:51:46;103.32;;;98.32;;
11269;SDS011;5692;48.956;9.200;2023-01-23T08:54:12;93.75;;;89.25;;
11269;SDS011;5692;48.956;9.200;2023-01-23T08:56:38;90.53;;;86.13;;
11269;SDS011;5692;48.956;9.200;2023-01-23T08:59:05;94.95;;;90.35;;
11269;SDS011;5692;48.956;9.200;2023-01-23T09:01:31;78.55;;;74.75;;
11269;SDS011;5692;48.956;9.200;2023-01-23T09:03:57;97.47;;;92.78;;
11269;SDS011;5692;48.956;9.200;2023-01-23T09:06:23;101.57;;;96.68;;
11269;SDS011;5692;48.956;9.200;2023-01-23T09:08:49;91.75;;;87.35;;
11269;SDS011;5692;48.956;9.200;2023-01-23T09:11:16;93.72;;;89.22;;
11269;SDS011;5692;48.956;9.200;2023-01-23T09:13:42;99.20;;;94.43;;
11269;SDS011;5692;48.956;9.200;2023-01-23T09:16:08;97.38;;;92.68;;
11269;SDS011;5692;48.956;9.200;2023-01-23T09:18:34;100.63;;;95.80;;
11269;SDS011;5692;48.956;9.200;2023-01-23T09:21:04;103.47;;;98.47;;
11269;SDS011;5692;48.956;9.200;2023-01-23T09:23:31;104.82;;;99.82;;
11269;SDS011;5692;48.956;9.200;2023-01-23T09:26:03;105.07;;;100.03;;
11269;SDS011;5692;48.956;9.200;2023-01-23T09:28:30;108.55;;;103.35;;
11269;SDS011;5692;48.956;9.200;2023-01-23T09:30:56;113.25;;;107.80;;
11269;SDS011;5692;48.956;9.200;2023-01-23T09:33:22;109.75;;;104.45;;
11269;SDS011;5692;48.956;9.200;2023-01-23T09:35:51;107.88;;;102.68;;
11269;SDS011;5692;48.956;9.200;2023-01-23T09:38:17;103.78;;;98.80;;
11269;SDS011;5692;48.956;9.200;2023-01-23T09:40:50;97.15;;;92.45;;
11269;SDS011;5692;48.956;9.200;2023-01-23T09:46:04;106.97;;;101.82;;
11269;SDS011;5692;48.956;9.200;2023-01-23T09:51:09;109.10;;;103.85;;
11269;SDS011;5692;48.956;9.200;2023-01-23T09:53:37;105.18;;;100.13;;
11269;SDS011;5692;48.956;9.200;2023-01-23T09:58:45;116.35;;;110.75;;
11269;SDS011;5692;48.956;9.200;2023-01-23T10:01:13;113.32;;;107.90;;
11269;SDS011;5692;48.956;9.200;2023-01-23T10:03:39;107.63;;;102.43;;
11269;SDS011;5692;48.956;9.200;2023-01-23T10:06:17;118.05;;;112.38;;
11269;SDS011;5692;48.956;9.200;2023-01-23T10:08:48;104.95;;;99.90;;
11269;SDS011;5692;48.956;9.200;2023-01-23T10:26:44;114.30;;;108.80;;
11269;SDS011;5692;48.956;9.200;2023-01-23T10:29:20;127.38;;;121.28;;
11269;SDS011;5692;48.956;9.200;2023-01-23T10:31:51;115.07;;;109.55;;
11269;SDS011;5692;48.956;9.200;2023-01-23T10:36:46;113.55;;;108.07;;
11269;SDS011;5692;48.956;9.200;2023-01-23T10:39:16;125.15;;;119.15;;
11269;SDS011;5692;48.956;9.200;2023-01-23T10:41:44;111.10;;;105.80;;
11269;SDS011;5692;48.956;9.200;2023-01-23T10:44:14;123.32;;;117.40;;
11269;SDS011;5692;48.956;9.200;2023-01-23T10:46:59;124.28;;;118.30;;
11269;SDS011;5692;48.956;9.200;2023-01-23T10:49:34;110.10;;;104.80;;
11269;SDS011;5692;48.956;9.200;2023-01-23T10:52:02;116.57;;;110.97;;
11269;SDS011;5692;48.956;9.200;2023-01-23T10:54:29;123.57;;;117.65;;
11269;SDS011;5692;48.956;9.200;2023-01-23T10:59:31;118.32;;;112.63;;
11269;SDS011;5692;48.956;9.200;2023-01-23T11:02:19;114.75;;;109.20;;
11269;SDS011;5692;48.956;9.200;2023-01-23T11:04:45;113.68;;;108.20;;
11269;SDS011;5692;48.956;9.200;2023-01-23T11:10:00;122.13;;;116.22;;
11269;SDS011;5692;48.956;9.200;2023-01-23T11:12:30;120.20;;;114.40;;
11269;SDS011;5692;48.956;9.200;2023-01-23T11:17:41;103.45;;;98.45;;
11269;SDS011;5692;48.956;9.200;2023-01-23T11:22:59;99.60;;;94.80;;
11269;SDS011;5692;48.956;9.200;2023-01-23T11:28:11;128.40;;;122.22;;
11269;SDS011;5692;48.956;9.200;2023-01-23T11:30:46;109.00;;;103.75;;
11269;SDS011;5692;48.956;9.200;2023-01-23T11:33:14;118.80;;;113.10;;
11269;SDS011;5692;48.956;9.200;2023-01-23T11:38:30;112.25;;;106.88;;
11269;SDS011;5692;48.956;9.200;2023-01-23T11:41:02;120.03;;;114.25;;
11269;SDS011;5692;48.956;9.200;2023-01-23T11:43:29;118.45;;;112.78;;
11269;SDS011;5692;48.956;9.200;2023-01-23T11:53:20;138.02;;;131.40;;
11269;SDS011;5692;48.956;9.200;2023-01-23T11:56:09;139.38;;;132.68;;
11269;SDS011;5692;48.956;9.200;2023-01-23T12:08:58;140.57;;;133.82;;
11269;SDS011;5692;48.956;9.200;2023-01-23T12:11:30;146.20;;;139.20;;
11269;SDS011;5692;48.956;9.200;2023-01-23T12:14:20;143.68;;;136.77;;
11269;SDS011;5692;48.956;9.200;2023-01-23T12:16:52;149.05;;;141.90;;
11269;SDS011;5692;48.956;9.200;2023-01-23T12:19:24;157.40;;;149.85;;
11269;SDS011;5692;48.956;9.200;2023-01-23T12:29:38;146.93;;;139.90;;
11269;SDS011;5692;48.956;9.200;2023-01-23T12:32:14;146.05;;;139.05;;
11269;SDS011;5692;48.956;9.200;2023-01-23T12:37:20;144.15;;;137.25;;
11269;SDS011;5692;48.956;9.200;2023-01-23T12:39:59;139.65;;;132.95;;
11269;SDS011;5692;48.956;9.200;2023-01-23T12:42:28;138.75;;;132.05;;
11269;SDS011;5692;48.956;9.200;2023-01-23T12:45:18;144.05;;;137.15;;
11269;SDS011;5692;48.956;9.200;2023-01-23T12:47:52;145.13;;;138.15;;
11269;SDS011;5692;48.956;9.200;2023-01-23T12:50:22;143.55;;;136.65;;
11269;SDS011;5692;48.956;9.200;2023-01-23T12:57:45;146.32;;;139.32;;
11269;SDS011;5692;48.956;9.200;2023-01-23T13:05:34;136.30;;;129.77;;
11269;SDS011;5692;48.956;9.200;2023-01-23T13:08:24;135.13;;;128.65;;
11269;SDS011;5692;48.956;9.200;2023-01-23T13:11:09;138.55;;;131.90;;
11269;SDS011;5692;48.956;9.200;2023-01-23T13:13:55;131.93;;;125.60;;
11269;SDS011;5692;48.956;9.200;2023-01-23T13:16:23;139.43;;;132.73;;
11269;SDS011;5692;48.956;9.200;2023-01-23T13:18:51;145.75;;;138.75;;
11269;SDS011;5692;48.956;9.200;2023-01-23T13:21:36;139.57;;;132.88;;
11269;SDS011;5692;48.956;9.200;2023-01-23T13:24:39;144.65;;;137.75;;
11269;SDS011;5692;48.956;9.200;2023-01-23T13:33:18;148.45;;;141.32;;
11269;SDS011;5692;48.956;9.200;2023-01-23T13:48:58;158.70;;;151.10;;
11269;SDS011;5692;48.956;9.200;2023-01-23T13:51:44;165.48;;;157.57;;
11269;SDS011;5692;48.956;9.200;2023-01-23T13:54:12;161.45;;;153.70;;
11269;SDS011;5692;48.956;9.200;2023-01-23T13:57:02;142.13;;;135.32;;
11269;SDS011;5692;48.956;9.200;2023-01-23T13:59:31;150.13;;;142.93;;
11269;SDS011;5692;48.956;9.200;2023-01-23T14:02:02;146.55;;;139.55;;
11269;SDS011;5692;48.956;9.200;2023-01-23T14:04:59;145.27;;;138.30;;
11269;SDS011;5692;48.956;9.200;2023-01-23T14:07:39;155.38;;;147.93;;
11269;SDS011;5692;48.956;9.200;2023-01-23T14:12:48;150.35;;;143.15;;
11269;SDS011;5692;48.956;9.200;2023-01-23T14:15:22;143.48;;;136.60;;
11269;SDS011;5692;48.956;9.200;2023-01-23T14:20:42;148.10;;;141.00;;
11269;SDS011;5692;48.956;9.200;2023-01-23T14:23:19;148.82;;;141.68;;
11269;SDS011;5692;48.956;9.200;2023-01-23T14:25:49;137.50;;;130.90;;
11269;SDS011;5692;48.956;9.200;2023-01-23T14:28:16;138.80;;;132.10;;
11269;SDS011;5692;48.956;9.200;2023-01-23T14:30:52;141.40;;;134.60;;
11269;SDS011;5692;48.956;9.200;2023-01-23T14:33:19;130.60;;;124.32;;
11269;SDS011;5692;48.956;9.200;2023-01-23T14:35:45;133.60;;;127.20;;
11269;SDS011;5692;48.956;9.200;2023-01-23T14:38:15;140.20;;;133.48;;
11269;SDS011;5692;48.956;9.200;2023-01-23T14:40:43;136.18;;;129.65;;
11269;SDS011;5692;48.956;9.200;2023-01-23T14:43:11;123.20;;;117.30;;
11269;SDS011;5692;48.956;9.200;2023-01-23T14:45:42;137.20;;;130.60;;
11269;SDS011;5692;48.956;9.200;2023-01-23T14:48:12;129.57;;;123.38;;
11269;SDS011;5692;48.956;9.200;2023-01-23T14:50:39;122.90;;;117.00;;
11269;SDS011;5692;48.956;9.200;2023-01-23T14:53:10;130.82;;;124.55;;
11269;SDS011;5692;48.956;9.200;2023-01-23T14:55:38;134.95;;;128.48;;
11269;SDS011;5692;48.956;9.200;2023-01-23T14:58:05;127.30;;;121.20;;
11269;SDS011;5692;48.956;9.200;2023-01-23T15:00:32;133.82;;;127.43;;
11269;SDS011;5692;48.956;9.200;2023-01-23T15:02:59;134.13;;;127.72;;
11269;SDS011;5692;48.956;9.200;2023-01-23T15:05:26;131.18;;;124.88;;
11269;SDS011;5692;48.956;9.200;2023-01-23T15:07:56;133.85;;;127.45;;
11269;SDS011;5692;48.956;9.200;2023-01-23T15:10:23;135.43;;;128.93;;
11269;SDS011;5692;48.956;9.200;2023-01-23T15:12:54;132.27;;;125.95;;
11269;SDS011;5692;48.956;9.200;2023-01-23T15:15:21;131.10;;;124.80;;
11269;SDS011;5692;48.956;9.200;2023-01-23T15:17:48;126.20;;;120.15;;
11269;SDS011;5692;48.956;9.200;2023-01-23T15:25:43;123.90;;;117.95;;
11269;SDS011;5692;48.956;9.200;2023-01-23T15:30:53;125.72;;;119.68;;
11269;SDS011;5692;48.956;9.200;2023-01-23T15:33:26;121.22;;;115.40;;
11269;SDS011;5692;48.956;9.200;2023-01-23T15:36:06;128.45;;;122.25;;
11269;SDS011;5692;48.956;9.200;2023-01-23T15:38:33;119.38;;;113.65;;
11269;SDS011;5692;48.956;9.200;2023-01-23T15:40:59;115.72;;;110.15;;
11269;SDS011;5692;48.956;9.200;2023-01-23T15:43:25;118.00;;;112.30;;
11269;SDS011;5692;48.956;9.200;2023-01-23T15:45:51;132.15;;;125.80;;
11269;SDS011;5692;48.956;9.200;2023-01-23T15:48:17;130.48;;;124.18;;
11269;SDS011;5692;48.956;9.200;2023-01-23T15:50:43;117.03;;;111.40;;
11269;SDS011;5692;48.956;9.200;2023-01-23T15:53:10;119.03;;;113.32;;
11269;SDS011;5692;48.956;9.200;2023-01-23T15:55:37;112.68;;;107.28;;
11269;SDS011;5692;48.956;9.200;2023-01-23T15:58:03;123.38;;;117.47;;
11269;SDS011;5692;48.956;9.200;2023-01-23T16:00:29;124.50;;;118.53;;
11269;SDS011;5692;48.956;9.200;2023-01-23T16:02:56;120.82;;;115.03;;
11269;SDS011;5692;48.956;9.200;2023-01-23T16:05:40;115.45;;;109.90;;
11269;SDS011;5692;48.956;9.200;2023-01-23T16:08:17;111.93;;;106.55;;
11269;SDS011;5692;48.956;9.200;2023-01-23T16:10:47;113.05;;;107.65;;
11269;SDS011;5692;48.956;9.200;2023-01-23T16:13:14;112.03;;;106.65;;
11269;SDS011;5692;48.956;9.200;2023-01-23T16:15:40;118.45;;;112.75;;
11269;SDS011;5692;48.956;9.200;2023-01-23T16:18:06;111.70;;;106.30;;
11269;SDS011;5692;48.956;9.200;2023-01-23T16:20:34;105.07;;;100.00;;
11269;SDS011;5692;48.956;9.200;2023-01-23T16:23:03;107.90;;;102.70;;